createdAt,value
2023-05-06T00:02:20.316Z,65.19
2023-05-06T00:04:47.658Z,65.00
2023-05-06T00:07:14.422Z,65.10
2023-05-06T00:09:41.069Z,64.95
2023-05-06T00:12:07.844Z,64.92
2023-05-06T00:14:34.588Z,65.31
2023-05-06T00:17:01.223Z,65.29
2023-05-06T00:19:27.924Z,64.96
2023-05-06T00:21:55.957Z,65.15
2023-05-06T00:24:22.965Z,65.23
2023-05-06T00:26:49.637Z,65.99
2023-05-06T00:29:16.734Z,65.99
2023-05-06T00:31:43.455Z,66.17
2023-05-06T00:34:10.132Z,65.90
2023-05-06T00:36:37.625Z,65.69
2023-05-06T00:39:04.369Z,66.06
2023-05-06T00:41:32.718Z,66.31
2023-05-06T00:43:59.492Z,66.70
2023-05-06T00:46:26.360Z,66.80
2023-05-06T00:48:53.626Z,66.50
2023-05-06T00:51:20.679Z,66.29
2023-05-06T00:53:47.696Z,65.72
2023-05-06T00:56:14.480Z,66.12
2023-05-06T00:58:41.349Z,65.78
2023-05-06T01:01:08.375Z,65.86
2023-05-06T01:03:35.142Z,66.55
2023-05-06T01:06:08.011Z,66.04
2023-05-06T01:08:42.182Z,65.78
2023-05-06T01:11:22.750Z,66.33
2023-05-06T01:13:59.263Z,66.44
2023-05-06T01:16:29.595Z,67.12
2023-05-06T01:18:59.476Z,66.64
2023-05-06T01:21:34.588Z,66.67
2023-05-06T01:24:01.747Z,66.88
2023-05-06T01:26:28.437Z,67.29
2023-05-06T01:28:56.534Z,67.20
2023-05-06T01:31:26.996Z,66.12
2023-05-06T01:34:05.776Z,66.73
2023-05-06T01:36:45.977Z,66.77
2023-05-06T01:39:18.117Z,66.53
2023-05-06T01:41:48.808Z,67.01
2023-05-06T01:44:17.296Z,66.67
2023-05-06T01:46:45.801Z,67.37
2023-05-06T01:49:16.940Z,67.14
2023-05-06T01:51:51.606Z,67.18
2023-05-06T01:54:18.667Z,66.32
2023-05-06T01:56:45.508Z,67.88
2023-05-06T01:59:12.526Z,67.92
2023-05-06T02:01:39.359Z,68.66
2023-05-06T02:04:07.422Z,68.46
2023-05-06T02:06:34.463Z,68.28
2023-05-06T02:09:01.343Z,68.20
2023-05-06T02:11:29.737Z,68.45
2023-05-06T02:14:02.375Z,68.44
2023-05-06T02:16:31.949Z,67.51
2023-05-06T02:18:58.668Z,67.30
2023-05-06T02:21:25.326Z,68.32
2023-05-06T02:23:52.060Z,67.89
2023-05-06T02:26:18.704Z,68.27
2023-05-06T02:28:45.356Z,68.09
2023-05-06T02:31:16.237Z,67.61
2023-05-06T02:33:44.831Z,67.49
2023-05-06T02:36:11.522Z,67.77
2023-05-06T02:38:38.175Z,68.65
2023-05-06T02:41:04.815Z,68.17
2023-05-06T02:43:31.584Z,68.75
2023-05-06T02:45:58.445Z,69.37
2023-05-06T02:48:25.794Z,69.02
2023-05-06T02:50:52.457Z,69.64
2023-05-06T02:53:19.474Z,69.01
2023-05-06T02:55:46.552Z,68.21
2023-05-06T02:58:13.832Z,69.51
2023-05-06T03:00:40.534Z,68.61
2023-05-06T03:03:07.411Z,68.95
2023-05-06T03:05:34.180Z,69.53
2023-05-06T03:08:01.022Z,69.05
2023-05-06T03:10:27.838Z,69.16
2023-05-06T03:12:56.491Z,69.63
2023-05-06T03:15:23.211Z,69.85
2023-05-06T03:17:50.185Z,69.74
2023-05-06T03:20:17.234Z,69.72
2023-05-06T03:22:50.205Z,69.70
2023-05-06T03:25:17.798Z,69.39
2023-05-06T03:27:44.431Z,69.57
2023-05-06T03:30:17.367Z,69.45
2023-05-06T03:32:44.918Z,69.75
2023-05-06T03:35:15.725Z,69.48
2023-05-06T03:37:45.735Z,69.50
2023-05-06T03:40:12.930Z,70.06
2023-05-06T03:42:39.641Z,69.44
2023-05-06T03:45:07.907Z,70.00
2023-05-06T03:47:36.018Z,70.18
2023-05-06T03:50:06.203Z,69.85
2023-05-06T03:52:34.850Z,70.31
2023-05-06T03:55:01.732Z,69.93
2023-05-06T03:57:29.745Z,69.92
2023-05-06T03:59:57.024Z,70.62
2023-05-06T04:02:25.412Z,69.92
2023-05-06T04:04:52.188Z,70.56
2023-05-06T04:07:18.990Z,70.47
2023-05-06T04:09:45.658Z,71.20
2023-05-06T04:12:12.331Z,70.93
2023-05-06T04:14:39.811Z,71.89
2023-05-06T04:17:07.611Z,71.09
2023-05-06T04:19:34.181Z,70.67
2023-05-06T04:22:00.888Z,70.77
2023-05-06T04:24:28.538Z,70.54
2023-05-06T04:26:56.142Z,71.13
2023-05-06T04:29:23.475Z,71.93
2023-05-06T04:32:00.035Z,71.78
2023-05-06T04:34:29.447Z,72.04
2023-05-06T04:36:59.441Z,71.36
2023-05-06T04:39:32.787Z,71.82
2023-05-06T04:41:59.477Z,71.53
2023-05-06T04:44:34.110Z,71.15
2023-05-06T04:47:02.452Z,70.26
2023-05-06T04:49:29.652Z,71.41
2023-05-06T04:51:57.099Z,71.32
2023-05-06T04:54:24.703Z,71.85
2023-05-06T04:56:51.577Z,72.03
2023-05-06T04:59:19.428Z,72.11
2023-05-06T05:01:46.200Z,72.37
2023-05-06T05:04:12.901Z,72.14
2023-05-06T05:06:40.148Z,72.36
2023-05-06T05:09:06.726Z,72.81
2023-05-06T05:11:38.093Z,72.46
2023-05-06T05:14:05.075Z,72.67
2023-05-06T05:16:32.052Z,72.23
2023-05-06T05:19:01.583Z,72.14
2023-05-06T05:21:31.786Z,72.00
2023-05-06T05:23:59.144Z,72.83
2023-05-06T05:26:26.732Z,73.80
2023-05-06T05:28:55.010Z,74.12
2023-05-06T05:31:22.818Z,74.48
2023-05-06T05:33:50.789Z,74.69
2023-05-06T05:36:21.095Z,74.10
2023-05-06T05:38:50.630Z,74.82
2023-05-06T05:41:18.741Z,74.03
2023-05-06T05:43:45.907Z,73.21
2023-05-06T05:46:14.286Z,73.19
2023-05-06T05:48:43.288Z,73.38
2023-05-06T05:51:11.162Z,73.47
2023-05-06T05:53:37.925Z,73.80
2023-05-06T05:56:06.196Z,73.33
2023-05-06T05:58:33.317Z,73.63
2023-05-06T06:01:01.094Z,73.65
2023-05-06T06:03:28.347Z,73.06
2023-05-06T06:05:55.464Z,72.88
2023-05-06T06:08:24.913Z,74.06
2023-05-06T06:10:52.562Z,73.27
2023-05-06T06:13:23.913Z,74.35
2023-05-06T06:15:52.176Z,75.12
2023-05-06T06:18:20.369Z,74.98
2023-05-06T06:20:47.380Z,74.80
2023-05-06T06:23:14.246Z,74.44
2023-05-06T06:25:41.093Z,74.59
2023-05-06T06:28:07.817Z,74.27
2023-05-06T06:30:34.518Z,74.29
2023-05-06T06:33:01.556Z,74.96
2023-05-06T06:35:28.988Z,73.90
2023-05-06T06:37:55.686Z,74.74
2023-05-06T06:40:22.366Z,73.22
2023-05-06T06:42:49.150Z,73.68
2023-05-06T06:45:31.563Z,72.72
2023-05-06T06:47:58.282Z,72.73
2023-05-06T06:50:24.999Z,72.43
2023-05-06T06:52:51.770Z,73.25
2023-05-06T06:55:18.399Z,73.37
2023-05-06T06:57:45.064Z,73.59
2023-05-06T07:00:12.305Z,72.66
2023-05-06T07:02:38.966Z,72.12
2023-05-06T07:05:05.960Z,71.86
2023-05-06T07:07:32.710Z,71.45
2023-05-06T07:09:59.777Z,70.02
2023-05-06T07:12:26.857Z,70.82
2023-05-06T07:14:53.471Z,70.93
2023-05-06T07:17:20.305Z,70.13
2023-05-06T07:19:46.947Z,70.30
2023-05-06T07:22:13.630Z,70.86
2023-05-06T07:24:40.288Z,72.04
2023-05-06T07:27:07.176Z,71.53
2023-05-06T07:29:36.568Z,72.15
2023-05-06T07:32:03.730Z,71.63
2023-05-06T07:34:30.690Z,70.94
2023-05-06T07:36:57.436Z,69.97
2023-05-06T07:39:24.063Z,69.29
2023-05-06T07:41:51.520Z,69.22
2023-05-06T07:44:18.215Z,68.60
2023-05-06T07:46:45.088Z,68.29
2023-05-06T07:49:11.747Z,67.35
2023-05-06T07:51:38.449Z,66.69
2023-05-06T07:54:05.131Z,68.49
2023-05-06T07:56:31.778Z,66.90
2023-05-06T07:58:59.957Z,65.64
2023-05-06T08:01:29.065Z,64.78
2023-05-06T08:03:55.921Z,65.08
2023-05-06T08:06:22.889Z,63.78
2023-05-06T08:08:49.582Z,64.03
2023-05-06T08:11:18.122Z,64.03
2023-05-06T08:13:47.051Z,65.34
2023-05-06T08:16:13.936Z,64.33
2023-05-06T08:18:40.713Z,62.54
2023-05-06T08:21:07.320Z,63.86
2023-05-06T08:23:33.952Z,64.93
2023-05-06T08:26:01.885Z,66.97
2023-05-06T08:28:29.322Z,64.57
2023-05-06T08:30:56.026Z,65.70
2023-05-06T08:33:22.702Z,65.42
2023-05-06T08:35:51.124Z,65.35
2023-05-06T08:38:17.988Z,64.87
2023-05-06T08:40:44.968Z,64.35
2023-05-06T08:43:14.985Z,63.20
2023-05-06T08:45:42.375Z,62.89
2023-05-06T08:48:09.674Z,63.43
2023-05-06T08:50:42.339Z,64.85
2023-05-06T08:53:13.485Z,63.51
2023-05-06T08:55:44.188Z,62.95
2023-05-06T08:58:16.837Z,63.45
2023-05-06T09:00:44.324Z,59.99
2023-05-06T09:03:11.129Z,60.33
2023-05-06T09:05:37.914Z,60.16
2023-05-06T09:08:04.903Z,59.13
2023-05-06T09:10:46.192Z,59.58
2023-05-06T09:13:15.550Z,62.13
2023-05-06T09:15:49.917Z,62.51
2023-05-06T09:18:16.993Z,58.43
2023-05-06T09:20:48.413Z,63.65
2023-05-06T09:23:17.295Z,63.68
2023-05-06T09:25:46.125Z,61.33
2023-05-06T09:28:14.186Z,61.87
2023-05-06T09:30:42.953Z,60.86
2023-05-06T09:33:10.524Z,60.83
2023-05-06T09:35:39.201Z,61.70
2023-05-06T09:38:07.511Z,63.34
2023-05-06T09:40:38.353Z,61.23
2023-05-06T09:43:06.709Z,61.44
2023-05-06T09:45:33.873Z,59.98
2023-05-06T09:48:01.049Z,61.41
2023-05-06T09:50:28.210Z,59.39
2023-05-06T09:52:56.471Z,58.09
2023-05-06T09:55:26.723Z,58.59
2023-05-06T09:57:54.692Z,58.45
2023-05-06T10:00:26.917Z,61.35
2023-05-06T10:02:54.997Z,61.14
2023-05-06T10:05:22.970Z,58.98
2023-05-06T10:07:52.320Z,59.35
2023-05-06T10:10:19.333Z,58.63
2023-05-06T10:12:46.383Z,58.27
2023-05-06T10:15:13.325Z,58.57
2023-05-06T10:17:45.198Z,57.64
2023-05-06T10:20:14.054Z,59.42
2023-05-06T10:22:46.542Z,55.01
2023-05-06T10:25:25.165Z,57.59
2023-05-06T10:27:52.595Z,57.28
2023-05-06T10:30:19.751Z,57.33
2023-05-06T10:32:46.717Z,57.35
2023-05-06T10:35:27.489Z,58.65
2023-05-06T10:37:55.161Z,57.39
2023-05-06T10:40:23.162Z,55.67
2023-05-06T10:42:51.479Z,53.26
2023-05-06T10:45:18.092Z,56.96
2023-05-06T10:47:57.326Z,54.73
2023-05-06T10:50:25.860Z,55.37
2023-05-06T10:52:58.891Z,56.67
2023-05-06T10:55:25.878Z,55.43
2023-05-06T10:57:57.363Z,53.09
2023-05-06T11:00:24.466Z,53.18
2023-05-06T11:02:56.672Z,51.35
2023-05-06T11:05:24.127Z,54.68
2023-05-06T11:07:52.112Z,54.84
2023-05-06T11:10:39.099Z,52.89
2023-05-06T11:13:24.471Z,53.69
2023-05-06T11:15:52.118Z,53.89
2023-05-06T11:18:24.615Z,54.25
2023-05-06T11:21:02.440Z,53.92
2023-05-06T11:23:52.169Z,53.20
2023-05-06T11:26:19.011Z,52.97
2023-05-06T11:28:47.226Z,53.28
2023-05-06T11:31:15.022Z,53.72
2023-05-06T11:33:55.049Z,49.72
2023-05-06T11:36:21.832Z,51.30
2023-05-06T11:38:51.341Z,52.22
2023-05-06T11:41:18.914Z,53.28
2023-05-06T11:43:50.415Z,50.90
2023-05-06T11:46:22.761Z,52.11
2023-05-06T11:48:50.443Z,50.51
2023-05-06T11:51:22.772Z,51.56
2023-05-06T11:53:49.626Z,51.72
2023-05-06T11:56:16.247Z,48.34
2023-05-06T11:58:44.109Z,51.43
2023-05-06T12:01:10.715Z,50.53
2023-05-06T12:03:37.662Z,51.52
2023-05-06T12:06:04.845Z,50.70
2023-05-06T12:08:36.371Z,51.07
2023-05-06T12:11:08.924Z,49.38
2023-05-06T12:13:36.966Z,48.57
2023-05-06T12:16:05.737Z,48.08
2023-05-06T12:18:33.096Z,47.98
2023-05-06T12:21:02.781Z,48.94
2023-05-06T12:23:29.489Z,47.24
2023-05-06T12:26:06.919Z,47.76
2023-05-06T12:28:36.468Z,46.95
2023-05-06T12:31:24.214Z,47.37
2023-05-06T12:33:51.063Z,45.95
2023-05-06T12:36:18.858Z,46.28
2023-05-06T12:38:59.003Z,48.30
2023-05-06T12:41:36.793Z,45.57
2023-05-06T12:44:04.488Z,46.64
2023-05-06T12:46:31.348Z,47.29
2023-05-06T12:49:02.672Z,45.72
2023-05-06T12:51:31.169Z,46.23
2023-05-06T12:53:58.057Z,45.64
2023-05-06T12:56:25.050Z,48.85
2023-05-06T12:59:02.388Z,46.48
2023-05-06T13:01:29.300Z,46.44
2023-05-06T13:03:58.726Z,48.03
2023-05-06T13:06:25.747Z,46.59
2023-05-06T13:08:52.464Z,45.98
2023-05-06T13:11:19.196Z,44.42
2023-05-06T13:13:45.947Z,44.74
2023-05-06T13:16:12.667Z,46.39
2023-05-06T13:18:39.316Z,45.70
2023-05-06T13:21:06.041Z,46.74
2023-05-06T13:23:34.935Z,46.99
2023-05-06T13:26:05.788Z,45.98
2023-05-06T13:28:33.962Z,44.17
2023-05-06T13:31:00.932Z,45.37
2023-05-06T13:33:27.741Z,45.43
2023-05-06T13:35:54.536Z,44.70
2023-05-06T13:38:21.843Z,45.72
2023-05-06T13:40:52.944Z,45.23
2023-05-06T13:43:21.234Z,44.70
2023-05-06T13:45:47.923Z,43.88
2023-05-06T13:48:14.960Z,45.00
2023-05-06T13:50:42.506Z,45.21
2023-05-06T13:53:09.238Z,45.26
2023-05-06T13:55:36.240Z,46.96
2023-05-06T13:58:04.046Z,46.10
2023-05-06T14:00:30.779Z,44.60
2023-05-06T14:02:57.801Z,46.74
2023-05-06T14:05:24.691Z,46.04
2023-05-06T14:07:52.014Z,47.12
2023-05-06T14:10:19.976Z,45.31
2023-05-06T14:12:47.445Z,46.78
2023-05-06T14:15:17.992Z,47.03
2023-05-06T14:17:44.778Z,47.47
2023-05-06T14:20:11.822Z,47.25
2023-05-06T14:22:41.031Z,45.71
2023-05-06T14:25:08.786Z,46.40
2023-05-06T14:27:36.154Z,44.69
2023-05-06T14:30:08.251Z,44.01
2023-05-06T14:32:36.113Z,43.82
2023-05-06T14:35:02.802Z,45.35
2023-05-06T14:37:29.803Z,44.84
2023-05-06T14:39:57.667Z,45.01
2023-05-06T14:42:24.467Z,46.08
2023-05-06T14:44:51.093Z,44.97
2023-05-06T14:47:18.135Z,44.27
2023-05-06T14:49:44.785Z,44.66
2023-05-06T14:52:11.501Z,44.72
2023-05-06T14:54:42.264Z,45.21
2023-05-06T14:57:09.803Z,45.79
2023-05-06T14:59:37.094Z,46.28
2023-05-06T15:02:07.393Z,44.34
2023-05-06T15:04:34.481Z,44.86
2023-05-06T15:07:01.347Z,44.55
2023-05-06T15:09:28.554Z,44.76
2023-05-06T15:11:55.157Z,44.84
2023-05-06T15:14:21.941Z,47.89
2023-05-06T15:16:48.681Z,44.46
2023-05-06T15:19:15.687Z,44.61
2023-05-06T15:21:42.353Z,44.11
2023-05-06T15:24:09.125Z,43.41
2023-05-06T15:26:35.823Z,42.94
2023-05-06T15:29:02.540Z,43.41
2023-05-06T15:31:31.442Z,44.17
2023-05-06T15:34:00.319Z,43.18
2023-05-06T15:36:27.694Z,42.26
2023-05-06T15:39:00.708Z,42.05
2023-05-06T15:41:31.315Z,42.71
2023-05-06T15:43:59.246Z,42.58
2023-05-06T15:46:26.883Z,43.99
2023-05-06T15:49:12.363Z,43.50
2023-05-06T15:51:41.121Z,43.00
2023-05-06T15:54:07.997Z,43.52
2023-05-06T15:56:40.532Z,42.84
2023-05-06T15:59:08.391Z,43.43
2023-05-06T16:02:04.631Z,43.49
2023-05-06T16:04:22.338Z,42.46
2023-05-06T16:06:49.586Z,42.06
2023-05-06T16:09:16.354Z,42.35
2023-05-06T16:11:43.233Z,43.23
2023-05-06T16:14:09.910Z,43.04
2023-05-06T16:16:36.653Z,44.43
2023-05-06T16:19:03.494Z,44.57
2023-05-06T16:21:30.265Z,43.64
2023-05-06T16:23:56.883Z,44.05
2023-05-06T16:26:24.548Z,44.58
2023-05-06T16:28:51.218Z,44.05
2023-05-06T16:31:18.236Z,44.55
2023-05-06T16:33:45.107Z,45.73
2023-05-06T16:36:12.508Z,44.06
2023-05-06T16:38:39.230Z,44.69
2023-05-06T16:41:06.006Z,44.47
2023-05-06T16:43:32.614Z,45.09
2023-05-06T16:45:59.190Z,45.49
2023-05-06T16:48:25.947Z,45.97
2023-05-06T16:50:52.666Z,46.73
2023-05-06T16:53:19.454Z,45.94
2023-05-06T16:55:48.663Z,46.88
2023-05-06T16:58:15.874Z,48.00
2023-05-06T17:00:42.871Z,47.51
2023-05-06T17:03:09.987Z,46.39
2023-05-06T17:05:37.093Z,46.84
2023-05-06T17:08:03.981Z,46.81
2023-05-06T17:10:31.029Z,47.66
2023-05-06T17:12:58.910Z,47.49
2023-05-06T17:15:25.894Z,48.50
2023-05-06T17:17:52.855Z,48.08
2023-05-06T17:20:22.888Z,48.00
2023-05-06T17:22:50.104Z,47.88
2023-05-06T17:25:16.891Z,48.36
2023-05-06T17:27:44.786Z,47.96
2023-05-06T17:30:12.431Z,47.17
2023-05-06T17:32:39.595Z,48.51
2023-05-06T17:35:07.379Z,49.16
2023-05-06T17:37:34.814Z,50.61
2023-05-06T17:40:01.997Z,50.60
2023-05-06T17:42:29.820Z,51.37
2023-05-06T17:44:56.521Z,51.53
2023-05-06T17:47:23.244Z,51.09
2023-05-06T17:49:53.832Z,52.57
2023-05-06T17:52:20.694Z,53.35
2023-05-06T17:55:15.019Z,52.78
2023-05-06T17:57:37.364Z,53.57
2023-05-06T18:00:04.474Z,53.94
2023-05-06T18:02:38.787Z,53.61
2023-05-06T18:05:06.582Z,52.67
2023-05-06T18:07:34.631Z,51.80
2023-05-06T18:10:01.525Z,50.60
2023-05-06T18:12:28.696Z,51.34
2023-05-06T18:14:56.813Z,52.22
2023-05-06T18:17:23.652Z,52.18
2023-05-06T18:19:50.566Z,52.70
2023-05-06T18:22:17.256Z,52.91
2023-05-06T18:24:44.216Z,53.75
2023-05-06T18:27:11.608Z,53.14
2023-05-06T18:29:38.403Z,54.75
2023-05-06T18:32:06.721Z,54.77
2023-05-06T18:34:34.191Z,55.20
2023-05-06T18:37:00.926Z,54.63
2023-05-06T18:39:27.605Z,53.50
2023-05-06T18:41:54.257Z,53.73
2023-05-06T18:44:20.973Z,53.88
2023-05-06T18:46:47.601Z,54.34
2023-05-06T18:49:14.398Z,54.24
2023-05-06T18:51:41.334Z,54.17
2023-05-06T18:54:08.269Z,55.31
2023-05-06T18:56:35.583Z,54.62
2023-05-06T18:59:02.363Z,54.50
2023-05-06T19:01:29.177Z,54.83
2023-05-06T19:03:56.851Z,55.01
2023-05-06T19:06:23.630Z,54.85
2023-05-06T19:08:50.312Z,55.00
2023-05-06T19:11:21.306Z,55.08
2023-05-06T19:13:48.053Z,54.77
2023-05-06T19:16:14.936Z,54.85
2023-05-06T19:18:41.786Z,55.88
2023-05-06T19:21:15.024Z,54.97
2023-05-06T19:23:41.777Z,55.61
2023-05-06T19:26:11.161Z,55.53
2023-05-06T19:28:39.371Z,55.58
2023-05-06T19:31:08.189Z,56.27
2023-05-06T19:33:36.702Z,56.38
2023-05-06T19:36:04.138Z,55.66
2023-05-06T19:38:30.830Z,56.53
2023-05-06T19:40:57.516Z,56.83
2023-05-06T19:43:24.514Z,56.29
2023-05-06T19:45:51.322Z,56.92
2023-05-06T19:48:19.238Z,57.39
2023-05-06T19:50:45.961Z,57.00
2023-05-06T19:53:12.661Z,57.43
2023-05-06T19:55:39.266Z,57.13
2023-05-06T19:58:06.002Z,56.98
2023-05-06T20:00:32.845Z,56.93
2023-05-06T20:03:00.777Z,57.20
2023-05-06T20:05:31.884Z,57.16
2023-05-06T20:07:59.986Z,57.86
2023-05-06T20:10:27.473Z,56.59
2023-05-06T20:12:57.326Z,56.43
2023-05-06T20:15:24.850Z,57.28
2023-05-06T20:17:52.004Z,57.37
2023-05-06T20:20:19.329Z,56.41
2023-05-06T20:22:46.088Z,57.33
2023-05-06T20:25:18.610Z,56.15
2023-05-06T20:27:46.378Z,57.01
2023-05-06T20:30:13.291Z,56.85
2023-05-06T20:32:40.637Z,56.80
2023-05-06T20:35:08.227Z,57.21
2023-05-06T20:37:36.224Z,57.56
2023-05-06T20:40:04.938Z,57.53
2023-05-06T20:42:31.979Z,58.10
2023-05-06T20:44:59.468Z,57.47
2023-05-06T20:47:26.784Z,57.54
2023-05-06T20:49:53.948Z,57.34
2023-05-06T20:52:21.751Z,56.77
2023-05-06T20:54:48.868Z,56.80
2023-05-06T20:57:17.710Z,57.63
2023-05-06T20:59:44.604Z,57.53
2023-05-06T21:02:11.540Z,58.51
2023-05-06T21:04:38.433Z,58.54
2023-05-06T21:07:05.697Z,58.55
2023-05-06T21:09:32.564Z,59.08
2023-05-06T21:11:59.318Z,58.29
2023-05-06T21:14:27.337Z,58.66
2023-05-06T21:16:54.086Z,58.87
2023-05-06T21:19:21.064Z,59.49
2023-05-06T21:21:48.303Z,59.23
2023-05-06T21:24:15.129Z,59.61
2023-05-06T21:26:41.891Z,59.73
2023-05-06T21:29:08.687Z,59.57
2023-05-06T21:31:35.461Z,59.83
2023-05-06T21:34:03.469Z,59.03
2023-05-06T21:36:30.174Z,59.95
2023-05-06T21:39:14.914Z,60.39
2023-05-06T21:41:41.589Z,60.68
2023-05-06T21:44:09.170Z,60.27
2023-05-06T21:46:37.723Z,60.89
2023-05-06T21:49:04.823Z,60.89
2023-05-06T21:51:32.931Z,59.96
2023-05-06T21:53:59.624Z,59.68
2023-05-06T21:56:26.571Z,59.96
2023-05-06T21:58:56.995Z,59.79
2023-05-06T22:01:29.218Z,59.59
2023-05-06T22:03:56.407Z,59.33
2023-05-06T22:06:23.359Z,60.11
2023-05-06T22:08:50.121Z,59.69
2023-05-06T22:11:17.277Z,59.70
2023-05-06T22:13:44.474Z,61.01
2023-05-06T22:16:11.277Z,59.80
2023-05-06T22:18:41.258Z,59.12
2023-05-06T22:21:08.783Z,59.27
2023-05-06T22:23:35.690Z,60.18
2023-05-06T22:26:02.681Z,59.86
2023-05-06T22:28:29.283Z,61.61
2023-05-06T22:30:56.114Z,60.83
2023-05-06T22:33:22.809Z,60.94
2023-05-06T22:35:49.662Z,59.64
2023-05-06T22:38:16.324Z,62.49
2023-05-06T22:40:42.931Z,63.83
2023-05-06T22:43:09.592Z,64.78
2023-05-06T22:45:36.632Z,65.44
2023-05-06T22:48:03.717Z,65.54
2023-05-06T22:50:30.761Z,65.33
2023-05-06T22:52:57.448Z,65.46
2023-05-06T22:55:24.125Z,64.76
2023-05-06T22:57:53.830Z,65.68
2023-05-06T23:00:20.631Z,64.93
2023-05-06T23:02:47.455Z,65.93
2023-05-06T23:05:14.475Z,66.88
2023-05-06T23:07:41.252Z,66.80
2023-05-06T23:10:08.447Z,68.49
2023-05-06T23:12:35.288Z,68.00
2023-05-06T23:15:02.347Z,67.75
2023-05-06T23:17:28.942Z,68.63
2023-05-06T23:19:55.639Z,69.79
2023-05-06T23:22:22.646Z,70.46
2023-05-06T23:24:49.891Z,70.57
2023-05-06T23:27:16.488Z,71.78
2023-05-06T23:29:43.221Z,73.11
2023-05-06T23:32:09.939Z,73.21
2023-05-06T23:34:36.684Z,72.29
2023-05-06T23:37:03.271Z,72.65
2023-05-06T23:39:29.958Z,73.41
2023-05-06T23:41:56.531Z,72.50
2023-05-06T23:44:23.426Z,71.92
2023-05-06T23:46:50.232Z,71.53
2023-05-06T23:49:16.901Z,72.10
2023-05-06T23:51:43.560Z,74.08
2023-05-06T23:54:10.377Z,73.69
2023-05-06T23:56:37.019Z,74.34
2023-05-06T23:59:04.070Z,75.29
